sensor_id;sensor_type;location;lat;lon;timestamp;P1;durP1;ratioP1;P2;durP2;ratioP2
20008;SDS011;10165;42.662;23.260;2023-07-31T00:01:39;3.53;;;3.20;;
20008;SDS011;10165;42.662;23.260;2023-07-31T00:04:06;5.00;;;3.20;;
20008;SDS011;10165;42.662;23.260;2023-07-31T00:06:33;4.23;;;2.73;;
20008;SDS011;10165;42.662;23.260;2023-07-31T00:09:00;5.67;;;3.10;;
20008;SDS011;10165;42.662;23.260;2023-07-31T00:11:27;4.63;;;3.10;;
20008;SDS011;10165;42.662;23.260;2023-07-31T00:13:54;4.37;;;3.10;;
20008;SDS011;10165;42.662;23.260;2023-07-31T00:16:20;3.37;;;3.07;;
20008;SDS011;10165;42.662;23.260;2023-07-31T00:18:47;5.77;;;3.20;;
20008;SDS011;10165;42.662;23.260;2023-07-31T00:21:14;5.83;;;3.70;;
20008;SDS011;10165;42.662;23.260;2023-07-31T00:23:41;5.20;;;3.50;;
20008;SDS011;10165;42.662;23.260;2023-07-31T00:26:07;5.33;;;3.20;;
20008;SDS011;10165;42.662;23.260;2023-07-31T00:28:34;3.97;;;3.57;;
20008;SDS011;10165;42.662;23.260;2023-07-31T00:31:01;3.77;;;3.47;;
20008;SDS011;10165;42.662;23.260;2023-07-31T00:33:30;5.07;;;3.70;;
20008;SDS011;10165;42.662;23.260;2023-07-31T00:35:57;4.27;;;3.37;;
20008;SDS011;10165;42.662;23.260;2023-07-31T00:38:24;4.00;;;3.63;;
20008;SDS011;10165;42.662;23.260;2023-07-31T00:40:51;4.27;;;3.87;;
20008;SDS011;10165;42.662;23.260;2023-07-31T00:43:18;4.27;;;3.60;;
20008;SDS011;10165;42.662;23.260;2023-07-31T00:45:45;5.27;;;4.07;;
20008;SDS011;10165;42.662;23.260;2023-07-31T00:48:11;5.63;;;3.93;;
20008;SDS011;10165;42.662;23.260;2023-07-31T00:50:38;5.43;;;4.93;;
20008;SDS011;10165;42.662;23.260;2023-07-31T00:53:05;5.30;;;4.80;;
20008;SDS011;10165;42.662;23.260;2023-07-31T00:55:32;5.20;;;4.70;;
20008;SDS011;10165;42.662;23.260;2023-07-31T00:57:59;5.87;;;5.27;;
20008;SDS011;10165;42.662;23.260;2023-07-31T01:00:26;6.97;;;5.37;;
20008;SDS011;10165;42.662;23.260;2023-07-31T01:02:52;6.77;;;5.43;;
20008;SDS011;10165;42.662;23.260;2023-07-31T01:05:23;7.93;;;6.47;;
20008;SDS011;10165;42.662;23.260;2023-07-31T01:08:04;6.80;;;6.10;;
20008;SDS011;10165;42.662;23.260;2023-07-31T01:10:42;9.10;;;6.90;;
20008;SDS011;10165;42.662;23.260;2023-07-31T01:13:21;9.27;;;7.70;;
20008;SDS011;10165;42.662;23.260;2023-07-31T01:15:48;9.13;;;8.13;;
20008;SDS011;10165;42.662;23.260;2023-07-31T01:18:14;10.80;;;8.63;;
20008;SDS011;10165;42.662;23.260;2023-07-31T01:20:41;9.80;;;8.60;;
20008;SDS011;10165;42.662;23.260;2023-07-31T01:26:24;14.33;;;10.07;;
20008;SDS011;10165;42.662;23.260;2023-07-31T01:29:01;12.87;;;10.67;;
20008;SDS011;10165;42.662;23.260;2023-07-31T01:31:37;15.73;;;11.00;;
20008;SDS011;10165;42.662;23.260;2023-07-31T01:34:07;14.63;;;11.63;;
20008;SDS011;10165;42.662;23.260;2023-07-31T01:36:36;16.83;;;12.73;;
20008;SDS011;10165;42.662;23.260;2023-07-31T01:39:03;16.03;;;13.37;;
20008;SDS011;10165;42.662;23.260;2023-07-31T01:41:30;17.93;;;13.60;;
20008;SDS011;10165;42.662;23.260;2023-07-31T01:43:57;16.20;;;13.03;;
20008;SDS011;10165;42.662;23.260;2023-07-31T01:46:24;20.07;;;13.97;;
20008;SDS011;10165;42.662;23.260;2023-07-31T01:48:51;19.37;;;14.70;;
20008;SDS011;10165;42.662;23.260;2023-07-31T01:51:17;21.23;;;14.43;;
20008;SDS011;10165;42.662;23.260;2023-07-31T01:53:44;18.37;;;13.33;;
20008;SDS011;10165;42.662;23.260;2023-07-31T01:56:11;18.43;;;14.20;;
20008;SDS011;10165;42.662;23.260;2023-07-31T01:58:37;15.47;;;13.23;;
20008;SDS011;10165;42.662;23.260;2023-07-31T02:01:04;18.37;;;14.77;;
20008;SDS011;10165;42.662;23.260;2023-07-31T02:03:31;19.23;;;13.47;;
20008;SDS011;10165;42.662;23.260;2023-07-31T02:05:58;17.63;;;14.00;;
20008;SDS011;10165;42.662;23.260;2023-07-31T02:08:25;20.50;;;15.77;;
20008;SDS011;10165;42.662;23.260;2023-07-31T02:10:51;19.90;;;14.63;;
20008;SDS011;10165;42.662;23.260;2023-07-31T02:13:18;17.03;;;14.27;;
20008;SDS011;10165;42.662;23.260;2023-07-31T02:15:45;16.73;;;13.20;;
20008;SDS011;10165;42.662;23.260;2023-07-31T02:18:12;17.87;;;14.50;;
20008;SDS011;10165;42.662;23.260;2023-07-31T02:20:38;18.37;;;14.60;;
20008;SDS011;10165;42.662;23.260;2023-07-31T02:23:05;20.27;;;14.17;;
20008;SDS011;10165;42.662;23.260;2023-07-31T02:25:32;18.37;;;14.20;;
20008;SDS011;10165;42.662;23.260;2023-07-31T02:27:58;19.70;;;13.53;;
20008;SDS011;10165;42.662;23.260;2023-07-31T02:30:25;19.83;;;14.57;;
20008;SDS011;10165;42.662;23.260;2023-07-31T02:32:52;17.53;;;14.17;;
20008;SDS011;10165;42.662;23.260;2023-07-31T02:35:19;17.27;;;12.97;;
20008;SDS011;10165;42.662;23.260;2023-07-31T02:37:45;16.93;;;13.80;;
20008;SDS011;10165;42.662;23.260;2023-07-31T02:40:12;17.53;;;13.67;;
20008;SDS011;10165;42.662;23.260;2023-07-31T02:42:39;17.50;;;14.00;;
20008;SDS011;10165;42.662;23.260;2023-07-31T02:45:06;18.13;;;14.43;;
20008;SDS011;10165;42.662;23.260;2023-07-31T02:47:33;24.03;;;16.13;;
20008;SDS011;10165;42.662;23.260;2023-07-31T02:50:01;19.33;;;14.87;;
20008;SDS011;10165;42.662;23.260;2023-07-31T02:52:31;18.17;;;14.73;;
20008;SDS011;10165;42.662;23.260;2023-07-31T02:54:58;20.03;;;15.20;;
20008;SDS011;10165;42.662;23.260;2023-07-31T02:57:25;20.13;;;15.13;;
20008;SDS011;10165;42.662;23.260;2023-07-31T02:59:51;19.37;;;14.87;;
20008;SDS011;10165;42.662;23.260;2023-07-31T03:02:18;20.13;;;15.23;;
20008;SDS011;10165;42.662;23.260;2023-07-31T03:04:45;21.40;;;15.43;;
20008;SDS011;10165;42.662;23.260;2023-07-31T03:07:12;20.67;;;14.83;;
20008;SDS011;10165;42.662;23.260;2023-07-31T03:09:38;19.93;;;14.73;;
20008;SDS011;10165;42.662;23.260;2023-07-31T03:12:05;19.47;;;14.93;;
20008;SDS011;10165;42.662;23.260;2023-07-31T03:14:32;19.17;;;14.47;;
20008;SDS011;10165;42.662;23.260;2023-07-31T03:16:59;19.33;;;14.87;;
20008;SDS011;10165;42.662;23.260;2023-07-31T03:19:26;19.10;;;15.03;;
20008;SDS011;10165;42.662;23.260;2023-07-31T03:21:53;21.50;;;15.90;;
20008;SDS011;10165;42.662;23.260;2023-07-31T03:24:20;19.33;;;15.20;;
20008;SDS011;10165;42.662;23.260;2023-07-31T03:26:47;18.83;;;14.37;;
20008;SDS011;10165;42.662;23.260;2023-07-31T03:29:13;19.67;;;14.90;;
20008;SDS011;10165;42.662;23.260;2023-07-31T03:31:40;19.80;;;15.03;;
20008;SDS011;10165;42.662;23.260;2023-07-31T03:34:07;21.80;;;15.67;;
20008;SDS011;10165;42.662;23.260;2023-07-31T03:36:34;19.80;;;14.93;;
20008;SDS011;10165;42.662;23.260;2023-07-31T03:39:01;21.00;;;15.87;;
20008;SDS011;10165;42.662;23.260;2023-07-31T03:41:27;20.37;;;15.03;;
20008;SDS011;10165;42.662;23.260;2023-07-31T03:43:54;21.87;;;15.87;;
20008;SDS011;10165;42.662;23.260;2023-07-31T03:46:24;23.30;;;15.37;;
20008;SDS011;10165;42.662;23.260;2023-07-31T03:48:51;23.03;;;15.53;;
20008;SDS011;10165;42.662;23.260;2023-07-31T03:51:17;23.07;;;16.00;;
20008;SDS011;10165;42.662;23.260;2023-07-31T03:53:44;24.43;;;16.60;;
20008;SDS011;10165;42.662;23.260;2023-07-31T03:56:12;18.77;;;14.17;;
20008;SDS011;10165;42.662;23.260;2023-07-31T03:58:38;22.10;;;16.47;;
20008;SDS011;10165;42.662;23.260;2023-07-31T04:01:05;21.70;;;15.50;;
20008;SDS011;10165;42.662;23.260;2023-07-31T04:03:32;24.17;;;17.47;;
20008;SDS011;10165;42.662;23.260;2023-07-31T04:05:58;24.77;;;16.10;;
20008;SDS011;10165;42.662;23.260;2023-07-31T04:08:25;21.83;;;14.77;;
20008;SDS011;10165;42.662;23.260;2023-07-31T04:10:52;21.73;;;16.03;;
20008;SDS011;10165;42.662;23.260;2023-07-31T04:13:18;20.33;;;14.93;;
20008;SDS011;10165;42.662;23.260;2023-07-31T04:15:49;21.50;;;16.13;;
20008;SDS011;10165;42.662;23.260;2023-07-31T04:18:17;22.30;;;15.33;;
20008;SDS011;10165;42.662;23.260;2023-07-31T04:20:44;26.93;;;15.80;;
20008;SDS011;10165;42.662;23.260;2023-07-31T04:23:11;20.33;;;15.53;;
20008;SDS011;10165;42.662;23.260;2023-07-31T04:25:38;18.70;;;14.23;;
20008;SDS011;10165;42.662;23.260;2023-07-31T04:28:04;20.17;;;14.83;;
20008;SDS011;10165;42.662;23.260;2023-07-31T04:30:31;20.13;;;14.83;;
20008;SDS011;10165;42.662;23.260;2023-07-31T04:32:58;23.10;;;15.47;;
20008;SDS011;10165;42.662;23.260;2023-07-31T04:35:25;19.87;;;14.57;;
20008;SDS011;10165;42.662;23.260;2023-07-31T04:37:52;19.60;;;14.43;;
20008;SDS011;10165;42.662;23.260;2023-07-31T04:40:18;19.27;;;14.27;;
20008;SDS011;10165;42.662;23.260;2023-07-31T04:42:45;21.80;;;14.77;;
20008;SDS011;10165;42.662;23.260;2023-07-31T04:45:12;20.53;;;14.13;;
20008;SDS011;10165;42.662;23.260;2023-07-31T04:47:40;19.70;;;14.80;;
20008;SDS011;10165;42.662;23.260;2023-07-31T04:50:07;19.83;;;14.60;;
20008;SDS011;10165;42.662;23.260;2023-07-31T04:52:34;19.40;;;13.70;;
20008;SDS011;10165;42.662;23.260;2023-07-31T04:55:01;22.80;;;14.23;;
20008;SDS011;10165;42.662;23.260;2023-07-31T04:57:28;19.47;;;14.10;;
20008;SDS011;10165;42.662;23.260;2023-07-31T04:59:55;19.63;;;13.40;;
20008;SDS011;10165;42.662;23.260;2023-07-31T05:02:22;18.13;;;12.70;;
20008;SDS011;10165;42.662;23.260;2023-07-31T05:04:49;19.17;;;13.27;;
20008;SDS011;10165;42.662;23.260;2023-07-31T05:07:15;17.10;;;12.93;;
20008;SDS011;10165;42.662;23.260;2023-07-31T05:09:43;16.80;;;12.60;;
20008;SDS011;10165;42.662;23.260;2023-07-31T05:12:10;16.37;;;12.63;;
20008;SDS011;10165;42.662;23.260;2023-07-31T05:14:37;14.63;;;11.90;;
20008;SDS011;10165;42.662;23.260;2023-07-31T05:17:03;24.47;;;12.00;;
20008;SDS011;10165;42.662;23.260;2023-07-31T05:19:30;17.47;;;11.67;;
20008;SDS011;10165;42.662;23.260;2023-07-31T05:21:57;15.57;;;11.30;;
20008;SDS011;10165;42.662;23.260;2023-07-31T05:24:24;14.00;;;10.80;;
20008;SDS011;10165;42.662;23.260;2023-07-31T05:26:50;13.63;;;10.53;;
20008;SDS011;10165;42.662;23.260;2023-07-31T05:29:17;15.40;;;11.20;;
20008;SDS011;10165;42.662;23.260;2023-07-31T05:31:44;14.57;;;10.40;;
20008;SDS011;10165;42.662;23.260;2023-07-31T05:34:10;14.73;;;10.33;;
20008;SDS011;10165;42.662;23.260;2023-07-31T05:36:37;11.87;;;9.53;;
20008;SDS011;10165;42.662;23.260;2023-07-31T05:39:04;11.77;;;9.87;;
20008;SDS011;10165;42.662;23.260;2023-07-31T05:41:35;11.63;;;8.53;;
20008;SDS011;10165;42.662;23.260;2023-07-31T05:44:02;9.93;;;8.57;;
20008;SDS011;10165;42.662;23.260;2023-07-31T05:46:29;12.03;;;9.00;;
20008;SDS011;10165;42.662;23.260;2023-07-31T05:48:57;11.17;;;8.73;;
20008;SDS011;10165;42.662;23.260;2023-07-31T05:51:27;8.80;;;7.57;;
20008;SDS011;10165;42.662;23.260;2023-07-31T05:53:54;10.00;;;8.60;;
20008;SDS011;10165;42.662;23.260;2023-07-31T05:56:21;11.33;;;7.37;;
20008;SDS011;10165;42.662;23.260;2023-07-31T05:58:48;7.60;;;6.70;;
20008;SDS011;10165;42.662;23.260;2023-07-31T06:01:15;7.97;;;6.00;;
20008;SDS011;10165;42.662;23.260;2023-07-31T06:03:43;7.57;;;5.87;;
20008;SDS011;10165;42.662;23.260;2023-07-31T06:06:11;5.73;;;5.13;;
20008;SDS011;10165;42.662;23.260;2023-07-31T06:08:37;6.83;;;4.90;;
20008;SDS011;10165;42.662;23.260;2023-07-31T06:11:04;7.57;;;5.43;;
20008;SDS011;10165;42.662;23.260;2023-07-31T06:13:32;7.17;;;4.60;;
20008;SDS011;10165;42.662;23.260;2023-07-31T06:15:58;4.87;;;4.37;;
20008;SDS011;10165;42.662;23.260;2023-07-31T06:18:27;4.50;;;4.10;;
20008;SDS011;10165;42.662;23.260;2023-07-31T06:20:54;4.47;;;3.70;;
20008;SDS011;10165;42.662;23.260;2023-07-31T06:23:21;4.77;;;3.90;;
20008;SDS011;10165;42.662;23.260;2023-07-31T06:25:48;5.57;;;4.00;;
20008;SDS011;10165;42.662;23.260;2023-07-31T06:28:14;4.33;;;3.93;;
20008;SDS011;10165;42.662;23.260;2023-07-31T06:30:41;4.43;;;3.57;;
20008;SDS011;10165;42.662;23.260;2023-07-31T06:33:08;8.10;;;4.30;;
20008;SDS011;10165;42.662;23.260;2023-07-31T06:35:35;5.13;;;4.07;;
20008;SDS011;10165;42.662;23.260;2023-07-31T06:38:02;4.40;;;3.80;;
20008;SDS011;10165;42.662;23.260;2023-07-31T06:40:29;3.97;;;3.57;;
20008;SDS011;10165;42.662;23.260;2023-07-31T06:42:56;3.50;;;3.20;;
20008;SDS011;10165;42.662;23.260;2023-07-31T06:45:23;5.67;;;4.20;;
20008;SDS011;10165;42.662;23.260;2023-07-31T06:47:50;3.90;;;3.47;;
20008;SDS011;10165;42.662;23.260;2023-07-31T06:50:17;5.00;;;3.47;;
20008;SDS011;10165;42.662;23.260;2023-07-31T06:52:43;5.60;;;3.40;;
20008;SDS011;10165;42.662;23.260;2023-07-31T06:55:17;5.53;;;3.93;;
20008;SDS011;10165;42.662;23.260;2023-07-31T06:57:49;3.37;;;3.07;;
20008;SDS011;10165;42.662;23.260;2023-07-31T07:00:17;3.53;;;2.80;;
20008;SDS011;10165;42.662;23.260;2023-07-31T07:02:44;2.80;;;2.57;;
20008;SDS011;10165;42.662;23.260;2023-07-31T07:05:11;3.30;;;2.70;;
20008;SDS011;10165;42.662;23.260;2023-07-31T07:07:38;3.60;;;2.90;;
20008;SDS011;10165;42.662;23.260;2023-07-31T07:10:05;3.27;;;2.60;;
20008;SDS011;10165;42.662;23.260;2023-07-31T07:12:32;3.53;;;2.70;;
20008;SDS011;10165;42.662;23.260;2023-07-31T07:15:00;3.37;;;2.80;;
20008;SDS011;10165;42.662;23.260;2023-07-31T07:17:27;4.57;;;2.93;;
20008;SDS011;10165;42.662;23.260;2023-07-31T07:19:57;4.90;;;2.50;;
20008;SDS011;10165;42.662;23.260;2023-07-31T07:22:25;2.97;;;2.50;;
20008;SDS011;10165;42.662;23.260;2023-07-31T07:24:53;3.17;;;2.40;;
20008;SDS011;10165;42.662;23.260;2023-07-31T07:27:20;2.37;;;2.13;;
20008;SDS011;10165;42.662;23.260;2023-07-31T07:29:47;2.10;;;1.90;;
20008;SDS011;10165;42.662;23.260;2023-07-31T07:32:16;3.07;;;2.70;;
20008;SDS011;10165;42.662;23.260;2023-07-31T07:34:44;4.30;;;3.00;;
20008;SDS011;10165;42.662;23.260;2023-07-31T07:37:11;3.10;;;2.50;;
20008;SDS011;10165;42.662;23.260;2023-07-31T07:39:38;5.03;;;2.80;;
20008;SDS011;10165;42.662;23.260;2023-07-31T07:42:05;4.53;;;3.07;;
20008;SDS011;10165;42.662;23.260;2023-07-31T07:44:32;3.07;;;2.77;;
20008;SDS011;10165;42.662;23.260;2023-07-31T07:46:58;2.73;;;2.50;;
20008;SDS011;10165;42.662;23.260;2023-07-31T07:49:25;2.70;;;2.50;;
20008;SDS011;10165;42.662;23.260;2023-07-31T07:51:52;3.17;;;2.63;;
20008;SDS011;10165;42.662;23.260;2023-07-31T07:54:19;3.27;;;2.50;;
20008;SDS011;10165;42.662;23.260;2023-07-31T07:56:47;2.97;;;2.10;;
20008;SDS011;10165;42.662;23.260;2023-07-31T07:59:14;2.33;;;2.13;;
20008;SDS011;10165;42.662;23.260;2023-07-31T08:01:41;3.97;;;2.47;;
20008;SDS011;10165;42.662;23.260;2023-07-31T08:04:08;4.43;;;2.40;;
20008;SDS011;10165;42.662;23.260;2023-07-31T08:06:35;2.80;;;2.60;;
20008;SDS011;10165;42.662;23.260;2023-07-31T08:09:02;4.07;;;2.07;;
20008;SDS011;10165;42.662;23.260;2023-07-31T08:11:32;2.93;;;2.63;;
20008;SDS011;10165;42.662;23.260;2023-07-31T08:13:59;2.80;;;2.43;;
20008;SDS011;10165;42.662;23.260;2023-07-31T08:16:27;3.20;;;2.70;;
20008;SDS011;10165;42.662;23.260;2023-07-31T08:18:54;3.00;;;2.17;;
20008;SDS011;10165;42.662;23.260;2023-07-31T08:21:21;3.30;;;2.43;;
20008;SDS011;10165;42.662;23.260;2023-07-31T08:23:48;3.40;;;2.30;;
20008;SDS011;10165;42.662;23.260;2023-07-31T08:26:15;2.33;;;2.10;;
20008;SDS011;10165;42.662;23.260;2023-07-31T08:28:43;2.57;;;2.33;;
20008;SDS011;10165;42.662;23.260;2023-07-31T08:31:10;3.80;;;2.17;;
20008;SDS011;10165;42.662;23.260;2023-07-31T08:33:38;3.77;;;2.43;;
20008;SDS011;10165;42.662;23.260;2023-07-31T08:36:05;2.33;;;2.13;;
20008;SDS011;10165;42.662;23.260;2023-07-31T08:38:32;3.00;;;2.50;;
20008;SDS011;10165;42.662;23.260;2023-07-31T08:40:59;5.27;;;2.40;;
20008;SDS011;10165;42.662;23.260;2023-07-31T08:43:26;3.00;;;2.70;;
20008;SDS011;10165;42.662;23.260;2023-07-31T08:45:54;3.10;;;2.33;;
20008;SDS011;10165;42.662;23.260;2023-07-31T08:48:21;3.80;;;2.50;;
20008;SDS011;10165;42.662;23.260;2023-07-31T08:50:49;3.57;;;2.40;;
20008;SDS011;10165;42.662;23.260;2023-07-31T08:53:18;2.93;;;2.07;;
20008;SDS011;10165;42.662;23.260;2023-07-31T08:55:45;6.07;;;2.43;;
20008;SDS011;10165;42.662;23.260;2023-07-31T08:58:14;2.60;;;2.40;;
20008;SDS011;10165;42.662;23.260;2023-07-31T09:00:41;2.33;;;2.13;;
20008;SDS011;10165;42.662;23.260;2023-07-31T09:03:17;2.97;;;2.53;;
20008;SDS011;10165;42.662;23.260;2023-07-31T09:05:45;2.37;;;2.00;;
20008;SDS011;10165;42.662;23.260;2023-07-31T09:08:13;2.53;;;2.20;;
20008;SDS011;10165;42.662;23.260;2023-07-31T09:10:44;2.50;;;2.30;;
20008;SDS011;10165;42.662;23.260;2023-07-31T09:13:13;2.40;;;2.20;;
20008;SDS011;10165;42.662;23.260;2023-07-31T09:15:41;5.27;;;2.33;;
20008;SDS011;10165;42.662;23.260;2023-07-31T09:18:10;4.10;;;2.30;;
20008;SDS011;10165;42.662;23.260;2023-07-31T09:20:37;2.37;;;2.17;;
20008;SDS011;10165;42.662;23.260;2023-07-31T09:23:05;3.60;;;2.30;;
20008;SDS011;10165;42.662;23.260;2023-07-31T09:25:32;3.20;;;2.60;;
20008;SDS011;10165;42.662;23.260;2023-07-31T09:28:01;3.27;;;2.33;;
20008;SDS011;10165;42.662;23.260;2023-07-31T09:30:43;2.80;;;2.30;;
20008;SDS011;10165;42.662;23.260;2023-07-31T09:33:12;4.03;;;3.13;;
20008;SDS011;10165;42.662;23.260;2023-07-31T09:35:39;2.80;;;2.40;;
20008;SDS011;10165;42.662;23.260;2023-07-31T09:38:10;2.47;;;2.17;;
20008;SDS011;10165;42.662;23.260;2023-07-31T09:40:39;2.80;;;2.50;;
20008;SDS011;10165;42.662;23.260;2023-07-31T09:43:25;2.63;;;2.33;;
20008;SDS011;10165;42.662;23.260;2023-07-31T09:45:54;5.20;;;2.27;;
20008;SDS011;10165;42.662;23.260;2023-07-31T09:48:23;3.77;;;2.50;;
20008;SDS011;10165;42.662;23.260;2023-07-31T09:50:53;3.30;;;2.67;;
20008;SDS011;10165;42.662;23.260;2023-07-31T09:53:27;2.67;;;2.47;;
20008;SDS011;10165;42.662;23.260;2023-07-31T09:55:58;3.60;;;2.50;;
20008;SDS011;10165;42.662;23.260;2023-07-31T09:58:25;2.70;;;2.27;;
20008;SDS011;10165;42.662;23.260;2023-07-31T10:00:55;2.30;;;2.10;;
20008;SDS011;10165;42.662;23.260;2023-07-31T10:03:24;3.33;;;2.03;;
20008;SDS011;10165;42.662;23.260;2023-07-31T10:05:53;2.50;;;2.30;;
20008;SDS011;10165;42.662;23.260;2023-07-31T10:08:23;4.67;;;2.30;;
20008;SDS011;10165;42.662;23.260;2023-07-31T10:10:58;3.20;;;2.53;;
20008;SDS011;10165;42.662;23.260;2023-07-31T10:13:26;2.40;;;2.20;;
20008;SDS011;10165;42.662;23.260;2023-07-31T10:15:54;2.70;;;2.33;;
20008;SDS011;10165;42.662;23.260;2023-07-31T10:18:26;2.00;;;1.80;;
20008;SDS011;10165;42.662;23.260;2023-07-31T10:20:54;3.23;;;2.43;;
20008;SDS011;10165;42.662;23.260;2023-07-31T10:23:22;3.40;;;2.40;;
20008;SDS011;10165;42.662;23.260;2023-07-31T10:25:51;2.60;;;2.37;;
20008;SDS011;10165;42.662;23.260;2023-07-31T10:28:20;3.67;;;2.03;;
20008;SDS011;10165;42.662;23.260;2023-07-31T10:30:47;3.13;;;2.00;;
20008;SDS011;10165;42.662;23.260;2023-07-31T10:33:15;1.80;;;1.70;;
20008;SDS011;10165;42.662;23.260;2023-07-31T10:35:43;2.30;;;2.00;;
20008;SDS011;10165;42.662;23.260;2023-07-31T10:38:11;2.17;;;2.00;;
20008;SDS011;10165;42.662;23.260;2023-07-31T10:40:38;3.33;;;2.00;;
20008;SDS011;10165;42.662;23.260;2023-07-31T10:43:05;2.23;;;1.90;;
20008;SDS011;10165;42.662;23.260;2023-07-31T10:45:38;1.93;;;1.73;;
20008;SDS011;10165;42.662;23.260;2023-07-31T10:48:13;3.80;;;2.03;;
20008;SDS011;10165;42.662;23.260;2023-07-31T10:50:50;3.00;;;1.83;;
20008;SDS011;10165;42.662;23.260;2023-07-31T10:53:25;2.57;;;1.83;;
20008;SDS011;10165;42.662;23.260;2023-07-31T10:55:53;2.63;;;2.03;;
20008;SDS011;10165;42.662;23.260;2023-07-31T10:58:24;2.07;;;1.83;;
20008;SDS011;10165;42.662;23.260;2023-07-31T11:00:56;1.70;;;1.50;;
20008;SDS011;10165;42.662;23.260;2023-07-31T11:03:25;1.60;;;1.37;;
20008;SDS011;10165;42.662;23.260;2023-07-31T11:06:03;1.73;;;1.63;;
20008;SDS011;10165;42.662;23.260;2023-07-31T11:08:31;1.57;;;1.47;;
20008;SDS011;10165;42.662;23.260;2023-07-31T11:13:29;1.70;;;1.60;;
20008;SDS011;10165;42.662;23.260;2023-07-31T11:15:57;2.03;;;1.83;;
20008;SDS011;10165;42.662;23.260;2023-07-31T11:18:24;1.70;;;1.60;;
20008;SDS011;10165;42.662;23.260;2023-07-31T11:20:53;2.10;;;1.70;;
20008;SDS011;10165;42.662;23.260;2023-07-31T11:23:21;2.53;;;1.90;;
20008;SDS011;10165;42.662;23.260;2023-07-31T11:25:49;4.23;;;1.97;;
20008;SDS011;10165;42.662;23.260;2023-07-31T11:28:17;2.23;;;1.67;;
20008;SDS011;10165;42.662;23.260;2023-07-31T11:30:45;3.07;;;1.70;;
20008;SDS011;10165;42.662;23.260;2023-07-31T11:33:13;4.57;;;1.90;;
20008;SDS011;10165;42.662;23.260;2023-07-31T11:35:44;2.97;;;2.50;;
20008;SDS011;10165;42.662;23.260;2023-07-31T11:38:20;1.90;;;1.70;;
20008;SDS011;10165;42.662;23.260;2023-07-31T11:40:54;2.37;;;1.90;;
20008;SDS011;10165;42.662;23.260;2023-07-31T11:43:23;9.00;;;2.30;;
20008;SDS011;10165;42.662;23.260;2023-07-31T11:45:57;4.30;;;2.27;;
20008;SDS011;10165;42.662;23.260;2023-07-31T11:48:32;2.23;;;2.03;;
20008;SDS011;10165;42.662;23.260;2023-07-31T11:51:01;3.10;;;2.40;;
20008;SDS011;10165;42.662;23.260;2023-07-31T11:53:36;2.60;;;2.20;;
20008;SDS011;10165;42.662;23.260;2023-07-31T11:56:11;2.43;;;2.20;;
20008;SDS011;10165;42.662;23.260;2023-07-31T11:58:47;3.77;;;2.27;;
20008;SDS011;10165;42.662;23.260;2023-07-31T12:01:18;2.93;;;2.50;;
20008;SDS011;10165;42.662;23.260;2023-07-31T12:03:46;4.33;;;2.50;;
20008;SDS011;10165;42.662;23.260;2023-07-31T12:06:14;3.00;;;2.40;;
20008;SDS011;10165;42.662;23.260;2023-07-31T12:08:41;2.97;;;2.67;;
20008;SDS011;10165;42.662;23.260;2023-07-31T12:11:08;4.33;;;2.50;;
20008;SDS011;10165;42.662;23.260;2023-07-31T12:13:36;3.80;;;3.33;;
20008;SDS011;10165;42.662;23.260;2023-07-31T12:16:03;3.13;;;2.83;;
20008;SDS011;10165;42.662;23.260;2023-07-31T12:18:34;3.53;;;3.23;;
20008;SDS011;10165;42.662;23.260;2023-07-31T12:21:04;4.47;;;4.07;;
20008;SDS011;10165;42.662;23.260;2023-07-31T12:23:32;8.30;;;4.10;;
20008;SDS011;10165;42.662;23.260;2023-07-31T12:28:41;4.80;;;3.93;;
20008;SDS011;10165;42.662;23.260;2023-07-31T12:31:11;5.33;;;4.50;;
20008;SDS011;10165;42.662;23.260;2023-07-31T12:33:39;8.93;;;3.77;;
20008;SDS011;10165;42.662;23.260;2023-07-31T12:36:08;4.20;;;3.80;;
20008;SDS011;10165;42.662;23.260;2023-07-31T12:38:43;7.00;;;4.67;;
20008;SDS011;10165;42.662;23.260;2023-07-31T12:41:11;6.17;;;4.03;;
20008;SDS011;10165;42.662;23.260;2023-07-31T12:43:39;4.70;;;3.77;;
20008;SDS011;10165;42.662;23.260;2023-07-31T12:46:07;4.40;;;4.00;;
20008;SDS011;10165;42.662;23.260;2023-07-31T12:48:34;3.87;;;3.40;;
20008;SDS011;10165;42.662;23.260;2023-07-31T12:51:02;10.50;;;4.73;;
20008;SDS011;10165;42.662;23.260;2023-07-31T12:53:29;4.90;;;4.40;;
20008;SDS011;10165;42.662;23.260;2023-07-31T12:55:56;5.13;;;4.63;;
20008;SDS011;10165;42.662;23.260;2023-07-31T12:58:23;7.87;;;4.90;;
20008;SDS011;10165;42.662;23.260;2023-07-31T13:00:49;5.37;;;4.83;;
20008;SDS011;10165;42.662;23.260;2023-07-31T13:03:16;7.20;;;4.63;;
20008;SDS011;10165;42.662;23.260;2023-07-31T13:05:43;5.03;;;4.50;;
20008;SDS011;10165;42.662;23.260;2023-07-31T13:08:10;6.60;;;4.90;;
20008;SDS011;10165;42.662;23.260;2023-07-31T13:10:38;5.70;;;5.20;;
20008;SDS011;10165;42.662;23.260;2023-07-31T13:13:05;6.97;;;5.30;;
20008;SDS011;10165;42.662;23.260;2023-07-31T13:15:32;4.87;;;4.43;;
20008;SDS011;10165;42.662;23.260;2023-07-31T13:17:59;15.83;;;4.93;;
20008;SDS011;10165;42.662;23.260;2023-07-31T13:20:26;11.60;;;5.10;;
20008;SDS011;10165;42.662;23.260;2023-07-31T13:22:53;5.63;;;4.30;;
20008;SDS011;10165;42.662;23.260;2023-07-31T13:25:19;4.87;;;4.47;;
20008;SDS011;10165;42.662;23.260;2023-07-31T13:27:46;6.17;;;4.47;;
20008;SDS011;10165;42.662;23.260;2023-07-31T13:30:13;4.30;;;3.90;;
20008;SDS011;10165;42.662;23.260;2023-07-31T13:32:40;3.53;;;3.23;;
20008;SDS011;10165;42.662;23.260;2023-07-31T13:35:07;5.80;;;3.63;;
20008;SDS011;10165;42.662;23.260;2023-07-31T13:37:34;4.23;;;3.47;;
20008;SDS011;10165;42.662;23.260;2023-07-31T13:40:01;8.23;;;3.20;;
20008;SDS011;10165;42.662;23.260;2023-07-31T13:42:31;3.90;;;3.20;;
20008;SDS011;10165;42.662;23.260;2023-07-31T13:44:59;5.57;;;3.20;;
20008;SDS011;10165;42.662;23.260;2023-07-31T13:47:27;4.77;;;3.33;;
20008;SDS011;10165;42.662;23.260;2023-07-31T13:49:55;3.83;;;3.40;;
20008;SDS011;10165;42.662;23.260;2023-07-31T13:52:21;4.25;;;3.65;;
20008;SDS011;10165;42.662;23.260;2023-07-31T13:54:48;3.97;;;3.57;;
20008;SDS011;10165;42.662;23.260;2023-07-31T13:57:15;5.15;;;4.30;;
20008;SDS011;10165;42.662;23.260;2023-07-31T13:59:42;3.40;;;3.10;;
20008;SDS011;10165;42.662;23.260;2023-07-31T14:02:08;4.60;;;3.67;;
20008;SDS011;10165;42.662;23.260;2023-07-31T14:04:35;4.75;;;3.47;;
20008;SDS011;10165;42.662;23.260;2023-07-31T14:07:02;4.13;;;3.73;;
20008;SDS011;10165;42.662;23.260;2023-07-31T14:09:30;6.93;;;3.70;;
20008;SDS011;10165;42.662;23.260;2023-07-31T14:11:57;5.87;;;3.90;;
20008;SDS011;10165;42.662;23.260;2023-07-31T14:14:24;5.55;;;3.60;;
20008;SDS011;10165;42.662;23.260;2023-07-31T14:16:51;5.78;;;3.72;;
20008;SDS011;10165;42.662;23.260;2023-07-31T14:19:17;3.83;;;3.42;;
20008;SDS011;10165;42.662;23.260;2023-07-31T14:21:45;5.17;;;3.23;;
20008;SDS011;10165;42.662;23.260;2023-07-31T14:24:26;3.88;;;3.55;;
20008;SDS011;10165;42.662;23.260;2023-07-31T14:26:53;3.83;;;2.70;;
20008;SDS011;10165;42.662;23.260;2023-07-31T14:29:19;3.55;;;3.25;;
20008;SDS011;10165;42.662;23.260;2023-07-31T14:31:46;3.22;;;2.83;;
20008;SDS011;10165;42.662;23.260;2023-07-31T14:34:13;3.93;;;3.30;;
20008;SDS011;10165;42.662;23.260;2023-07-31T14:36:39;4.05;;;3.20;;
20008;SDS011;10165;42.662;23.260;2023-07-31T14:39:07;3.53;;;3.13;;